Time;durP1;ratioP1;P1;durP2;ratioP2;P2;SDS_P1;SDS_P2;PMS_P1;PMS_P2;Temp;Humidity;BMP_temperature;BMP_pressure;BME280_temperature;BME280_humidity;BME280_pressure;Samples;Min_cycle;Max_cycle;Signal;HPM_P1;HPM_P2
2023/01/10 00:02:01;;;;;;;2.38;1.17;;;7.60;94.10;;;;;;5032197;28;20017;-66
2023/01/10 00:04:28;;;;;;;3.05;1.13;;;7.50;93.90;;;;;;5022867;28;20109;-66
2023/01/10 00:06:54;;;;;;;0.90;0.90;;;7.50;94.00;;;;;;5025232;28;20053;-66
2023/01/10 00:09:20;;;;;;;2.25;1.00;;;7.50;94.10;;;;;;5026392;28;21906;-66
2023/01/10 00:14:32;;;;;;;4.50;1.45;;;7.40;94.10;;;;;;5026274;28;20091;-66
2023/01/10 00:16:57;;;;;;;5.03;1.17;;;7.50;94.10;;;;;;5028192;28;20041;-66
2023/01/10 00:19:23;;;;;;;4.57;1.10;;;7.40;94.00;;;;;;5027616;28;20033;-66
2023/01/10 00:21:49;;;;;;;3.80;1.33;;;7.50;94.10;;;;;;5024162;28;20083;-65
2023/01/10 00:24:21;;;;;;;4.22;0.95;;;7.50;94.00;;;;;;5026540;28;20030;-65
2023/01/10 00:26:53;;;;;;;4.00;1.40;;;7.50;94.00;;;;;;5023386;28;20083;-66
2023/01/10 00:29:26;;;;;;;4.25;1.17;;;7.50;93.90;;;;;;5025500;28;20061;-65
2023/01/10 00:31:52;;;;;;;2.38;1.33;;;7.40;93.80;;;;;;5027399;28;20018;-66
2023/01/10 00:34:18;;;;;;;3.65;1.80;;;7.50;93.80;;;;;;5028134;28;20488;-65
2023/01/10 00:36:46;;;;;;;2.17;1.00;;;7.40;93.80;;;;;;5024488;28;20034;-66
2023/01/10 00:39:13;;;;;;;1.98;1.00;;;7.40;93.90;;;;;;5027343;28;20109;-65
2023/01/10 00:44:24;;;;;;;3.35;1.60;;;7.30;93.80;;;;;;5023508;28;20036;-65
2023/01/10 00:46:50;;;;;;;1.00;0.90;;;7.20;93.80;;;;;;5034051;28;20066;-65
2023/01/10 00:49:16;;;;;;;4.78;1.52;;;7.30;93.90;;;;;;5026498;28;20072;-66
2023/01/10 00:51:42;;;;;;;2.95;1.60;;;7.20;93.80;;;;;;5031961;28;20025;-65
2023/01/10 00:54:09;;;;;;;2.10;1.13;;;7.20;93.90;;;;;;5030644;28;20053;-65
2023/01/10 00:56:35;;;;;;;6.05;1.63;;;7.20;93.90;;;;;;5029793;28;20030;-65
2023/01/10 00:59:00;;;;;;;4.88;1.38;;;7.20;93.90;;;;;;5027569;28;20025;-65
2023/01/10 01:01:26;;;;;;;3.78;1.58;;;7.20;93.90;;;;;;5028688;28;20034;-66
2023/01/10 01:03:52;;;;;;;1.80;0.93;;;7.20;93.90;;;;;;5029364;28;20044;-66
2023/01/10 01:06:17;;;;;;;4.53;1.40;;;7.20;93.90;;;;;;5028189;28;20083;-66
2023/01/10 01:08:43;;;;;;;3.85;1.65;;;7.20;93.80;;;;;;5026073;28;20562;-65
2023/01/10 01:11:09;;;;;;;2.67;1.10;;;7.20;93.80;;;;;;5025315;28;20044;-65
2023/01/10 01:13:35;;;;;;;4.20;1.48;;;7.10;93.80;;;;;;5025821;28;20053;-65
2023/01/10 01:16:00;;;;;;;2.50;1.38;;;7.10;93.90;;;;;;5029376;28;20040;-65
2023/01/10 01:18:26;;;;;;;3.97;1.30;;;7.10;93.90;;;;;;5024613;28;20709;-65
2023/01/10 01:20:55;;;;;;;4.80;1.50;;;7.10;93.90;;;;;;5025161;28;20029;-65
2023/01/10 01:23:22;;;;;;;3.58;1.00;;;7.10;93.90;;;;;;5029554;28;20036;-65
2023/01/10 01:25:54;;;;;;;4.10;1.30;;;7.00;93.90;;;;;;5027809;28;20029;-65
2023/01/10 01:28:20;;;;;;;;;;;7.00;93.90;;;;;;5028059;28;20559;-65
2023/01/10 01:30:46;;;;;;;2.45;1.35;;;7.00;93.90;;;;;;5026072;28;19994;-65
2023/01/10 01:33:12;;;;;;;2.72;1.33;;;7.00;94.00;;;;;;5025187;28;20057;-65
2023/01/10 01:35:41;;;;;;;4.47;1.60;;;7.00;94.00;;;;;;5028932;28;20038;-65
2023/01/10 01:38:07;;;;;;;6.28;1.65;;;7.00;94.00;;;;;;5025540;28;20032;-65
2023/01/10 01:40:32;;;;;;;2.75;1.00;;;7.00;94.00;;;;;;5023608;28;20033;-65
2023/01/10 01:42:58;;;;;;;4.82;1.35;;;7.00;94.00;;;;;;5028138;28;20033;-65
2023/01/10 01:45:37;;;;;;;2.72;1.13;;;7.00;94.00;;;;;;5026661;28;20036;-65
2023/01/10 01:48:19;;;;;;;2.40;1.25;;;6.90;93.90;;;;;;5028843;28;20140;-65
2023/01/10 01:51:06;;;;;;;;;;;6.90;93.90;;;;;;5029493;28;20508;-65
2023/01/10 01:53:51;;;;;;;3.08;1.20;;;6.90;93.90;;;;;;5023570;28;20043;-65
2023/01/10 01:56:43;;;;;;;3.58;1.17;;;6.90;94.00;;;;;;5028490;28;20084;-65
2023/01/10 01:59:22;;;;;;;2.63;1.10;;;6.90;94.00;;;;;;5023535;28;20489;-65
2023/01/10 02:01:53;;;;;;;4.88;1.52;;;6.80;94.00;;;;;;5025806;28;20021;-65
2023/01/10 02:04:24;;;;;;;4.60;1.45;;;6.80;94.00;;;;;;5028628;28;20563;-65
2023/01/10 02:06:52;;;;;;;6.28;1.73;;;6.80;94.00;;;;;;5030972;28;20060;-65
2023/01/10 02:09:26;;;;;;;1.25;0.80;;;6.80;94.10;;;;;;5027829;28;20033;-66
2023/01/10 02:11:53;;;;;;;2.33;1.13;;;6.70;94.20;;;;;;5029742;28;20212;-67
2023/01/10 02:14:20;;;;;;;2.17;1.10;;;6.70;94.10;;;;;;5032311;28;20100;-67
2023/01/10 02:16:46;;;;;;;3.97;1.00;;;6.70;94.10;;;;;;5030193;28;20128;-67
2023/01/10 02:19:32;;;;;;;5.10;1.10;;;6.70;94.20;;;;;;5025970;28;20097;-67
2023/01/10 02:22:10;;;;;;;1.80;1.00;;;6.70;94.30;;;;;;5029783;28;20483;-67
2023/01/10 02:24:53;;;;;;;2.67;1.13;;;6.70;94.20;;;;;;5028607;28;20034;-67
2023/01/10 02:27:25;;;;;;;2.40;1.02;;;6.70;94.30;;;;;;5032108;28;20038;-67
2023/01/10 02:30:18;;;;;;;2.50;0.90;;;6.70;94.20;;;;;;5031453;28;20049;-67
2023/01/10 02:32:57;;;;;;;2.83;1.10;;;6.80;94.30;;;;;;5034712;28;20275;-67
2023/01/10 02:35:41;;;;;;;3.25;1.00;;;6.80;94.20;;;;;;5031559;28;20045;-67
2023/01/10 02:38:20;;;;;;;2.10;0.93;;;6.90;94.20;;;;;;5029402;28;20044;-67
2023/01/10 02:40:59;;;;;;;2.75;1.13;;;6.90;94.10;;;;;;5029118;28;20572;-67
2023/01/10 02:43:38;;;;;;;4.57;1.27;;;6.90;94.10;;;;;;5033384;28;20357;-65
2023/01/10 02:46:12;;;;;;;4.13;1.15;;;7.00;94.10;;;;;;5029072;28;20670;-65
2023/01/10 02:48:37;;;;;;;3.78;1.00;;;7.00;94.10;;;;;;5030697;28;20032;-66
2023/01/10 02:51:17;;;;;;;3.15;1.20;;;7.00;94.00;;;;;;5029149;28;20026;-66
2023/01/10 02:53:49;;;;;;;3.55;0.95;;;7.00;94.00;;;;;;5026871;28;20365;-66
2023/01/10 02:56:35;;;;;;;3.08;1.00;;;7.00;94.00;;;;;;5031313;28;20049;-65
2023/01/10 02:59:13;;;;;;;5.45;1.40;;;7.00;94.00;;;;;;5029633;28;20064;-66
2023/01/10 03:02:02;;;;;;;3.55;1.15;;;7.00;94.00;;;;;;5027358;28;20484;-65
2023/01/10 03:04:50;;;;;;;4.25;1.33;;;7.00;94.10;;;;;;5031765;28;20457;-65
2023/01/10 03:07:28;;;;;;;5.03;1.30;;;7.00;94.00;;;;;;5029330;28;20033;-66
2023/01/10 03:10:16;;;;;;;4.60;1.15;;;7.00;94.00;;;;;;5027785;28;20029;-66
2023/01/10 03:12:55;;;;;;;4.35;0.98;;;7.00;94.00;;;;;;5031424;28;20041;-66
2023/01/10 03:15:26;;;;;;;3.40;1.15;;;7.00;94.10;;;;;;5031944;28;20151;-66
2023/01/10 03:17:55;;;;;;;2.40;0.98;;;7.00;94.20;;;;;;5027285;28;20474;-66
2023/01/10 03:20:23;;;;;;;1.17;0.70;;;7.00;94.20;;;;;;5029773;28;20560;-66
2023/01/10 03:22:50;;;;;;;1.60;0.90;;;7.10;94.20;;;;;;5022112;28;20033;-67
2023/01/10 03:25:19;;;;;;;5.10;1.05;;;7.10;94.20;;;;;;5029646;28;20129;-67
2023/01/10 03:27:51;;;;;;;4.45;1.10;;;7.10;94.20;;;;;;5029432;28;20110;-67
2023/01/10 03:30:35;;;;;;;5.40;1.30;;;7.10;94.30;;;;;;5029940;28;20667;-67
2023/01/10 03:33:02;;;;;;;5.65;1.27;;;7.10;94.30;;;;;;5031677;28;20026;-66
2023/01/10 03:35:50;;;;;;;5.50;1.30;;;7.10;94.30;;;;;;5028311;28;20028;-64
2023/01/10 03:38:28;;;;;;;3.88;1.38;;;7.10;94.30;;;;;;5030306;28;20017;-65
2023/01/10 03:41:10;;;;;;;3.78;1.50;;;7.00;94.30;;;;;;5028737;28;20022;-65
2023/01/10 03:46:53;;;;;;;3.47;0.90;;;7.10;94.30;;;;;;5030839;28;20103;-66
2023/01/10 03:49:21;;;;;;;6.63;1.38;;;7.10;94.30;;;;;;5030366;28;20046;-66
2023/01/10 03:51:48;;;;;;;1.88;1.25;;;7.00;94.30;;;;;;5028786;28;20030;-65
2023/01/10 03:54:15;;;;;;;2.90;1.10;;;7.00;94.60;;;;;;5029556;28;20026;-66
2023/01/10 03:56:46;;;;;;;5.95;1.50;;;6.90;94.40;;;;;;5030021;28;20096;-65
2023/01/10 03:59:12;;;;;;;9.05;2.10;;;7.00;94.40;;;;;;5028741;28;20036;-66
2023/01/10 04:01:37;;;;;;;4.55;1.05;;;7.00;94.40;;;;;;5029369;28;20033;-66
2023/01/10 04:04:03;;;;;;;4.65;1.38;;;7.00;94.50;;;;;;5031123;28;20056;-66
2023/01/10 04:06:29;;;;;;;9.38;1.45;;;6.90;94.50;;;;;;5028739;28;20040;-66
2023/01/10 04:08:55;;;;;;;2.10;0.90;;;7.00;94.50;;;;;;5029307;28;20025;-66
2023/01/10 04:11:20;;;;;;;4.70;1.40;;;7.00;94.50;;;;;;5029612;28;20561;-66
2023/01/10 04:13:47;;;;;;;3.08;1.00;;;7.00;94.50;;;;;;5030050;28;20420;-66
2023/01/10 04:16:13;;;;;;;2.63;1.20;;;7.10;94.50;;;;;;5030548;28;20091;-66
2023/01/10 04:18:38;;;;;;;2.72;1.38;;;7.10;94.50;;;;;;5031265;28;20025;-65
2023/01/10 04:21:05;;;;;;;3.30;1.13;;;7.10;94.50;;;;;;5027131;28;20026;-66
2023/01/10 04:23:31;;;;;;;3.38;1.48;;;7.10;94.50;;;;;;5034011;28;20075;-66
2023/01/10 04:25:56;;;;;;;6.68;1.80;;;7.10;94.50;;;;;;5034523;28;21918;-66
2023/01/10 04:28:22;;;;;;;5.93;1.70;;;7.10;94.40;;;;;;5031036;28;20409;-66
2023/01/10 04:30:48;;;;;;;13.10;2.40;;;7.00;94.40;;;;;;5027605;28;20056;-66
2023/01/10 04:33:13;;;;;;;3.72;1.75;;;7.00;94.50;;;;;;5029899;28;20018;-66
2023/01/10 04:35:39;;;;;;;6.20;1.95;;;7.00;94.50;;;;;;5032960;28;20053;-66
2023/01/10 04:38:04;;;;;;;5.65;2.05;;;7.00;94.60;;;;;;5033024;28;20036;-66
2023/01/10 04:40:30;;;;;;;4.10;1.63;;;7.00;94.50;;;;;;5031839;28;20042;-66
2023/01/10 04:42:55;;;;;;;5.85;1.60;;;7.00;94.60;;;;;;5030958;28;20025;-66
2023/01/10 04:45:21;;;;;;;6.45;2.00;;;7.00;94.60;;;;;;5038096;28;20042;-66
2023/01/10 04:47:51;;;;;;;3.33;1.63;;;6.90;94.60;;;;;;5034867;28;20029;-66
2023/01/10 04:50:17;;;;;;;3.42;1.30;;;6.90;94.60;;;;;;5037858;28;20025;-66
2023/01/10 04:52:43;;;;;;;4.28;1.60;;;7.00;94.70;;;;;;5020030;28;20498;-66
2023/01/10 04:55:09;;;;;;;4.03;1.65;;;6.90;94.60;;;;;;5028010;28;20037;-66
2023/01/10 04:57:34;;;;;;;3.80;1.30;;;7.00;94.70;;;;;;5026918;28;20035;-66
2023/01/10 05:00:00;;;;;;;7.40;1.75;;;7.00;94.70;;;;;;5028375;28;20101;-66
2023/01/10 05:02:25;;;;;;;3.05;1.25;;;7.00;94.70;;;;;;5027415;28;20394;-65
2023/01/10 05:04:51;;;;;;;5.97;1.50;;;7.00;94.60;;;;;;5028725;28;20034;-66
2023/01/10 05:07:17;;;;;;;6.68;1.95;;;7.10;94.70;;;;;;5026414;28;20936;-65
2023/01/10 05:09:42;;;;;;;9.65;2.13;;;7.00;94.60;;;;;;5029011;28;20095;-66
2023/01/10 05:12:08;;;;;;;4.80;1.30;;;7.00;94.70;;;;;;5029785;28;20026;-66
2023/01/10 05:14:33;;;;;;;4.78;1.42;;;7.10;94.70;;;;;;5025869;28;20052;-66
2023/01/10 05:16:59;;;;;;;5.13;1.75;;;7.10;94.70;;;;;;5028086;28;20029;-65
2023/01/10 05:19:25;;;;;;;8.80;1.80;;;7.10;94.60;;;;;;5022569;28;20044;-66
2023/01/10 05:21:51;;;;;;;4.43;1.40;;;7.10;94.70;;;;;;5027847;28;20041;-66
2023/01/10 05:24:17;;;;;;;6.88;2.30;;;7.10;94.60;;;;;;5029174;28;20018;-66
2023/01/10 05:26:42;;;;;;;2.83;1.63;;;7.10;94.60;;;;;;5028174;28;20083;-66
2023/01/10 05:29:11;;;;;;;5.10;1.70;;;7.10;94.60;;;;;;5030079;28;20672;-66
2023/01/10 05:31:37;;;;;;;2.53;1.42;;;7.10;94.60;;;;;;5029728;28;20025;-65
2023/01/10 05:34:02;;;;;;;6.90;2.03;;;7.10;94.60;;;;;;5028860;28;20056;-65
2023/01/10 05:36:28;;;;;;;7.05;1.63;;;7.20;94.60;;;;;;5022424;28;20034;-66
2023/01/10 05:38:53;;;;;;;4.03;1.83;;;7.20;94.60;;;;;;5029536;28;20021;-66
2023/01/10 05:41:19;;;;;;;5.95;1.38;;;7.20;94.50;;;;;;5025148;28;20534;-66
2023/01/10 05:43:44;;;;;;;3.35;1.38;;;7.20;94.60;;;;;;5029561;28;20516;-65
2023/01/10 05:46:10;;;;;;;4.72;1.92;;;7.20;94.50;;;;;;5027075;28;20104;-66
2023/01/10 05:48:36;;;;;;;8.50;2.85;;;7.20;94.50;;;;;;5031004;28;20036;-66
2023/01/10 05:51:02;;;;;;;7.32;1.67;;;7.20;94.50;;;;;;5033403;28;20036;-66
2023/01/10 05:53:28;;;;;;;3.92;1.67;;;7.10;94.50;;;;;;5032370;28;20035;-67
2023/01/10 05:55:58;;;;;;;8.38;1.95;;;7.20;94.50;;;;;;5026364;28;20520;-66
2023/01/10 05:58:25;;;;;;;8.55;1.85;;;7.10;94.50;;;;;;5028706;28;20771;-66
2023/01/10 06:00:50;;;;;;;8.38;1.80;;;7.10;94.60;;;;;;5032803;28;20554;-65
2023/01/10 06:03:16;;;;;;;7.20;1.67;;;7.10;94.60;;;;;;5032883;28;20022;-66
2023/01/10 06:05:42;;;;;;;5.43;1.52;;;7.10;94.60;;;;;;5027073;28;20026;-66
2023/01/10 06:08:08;;;;;;;8.40;1.55;;;7.20;94.80;;;;;;5034503;28;20036;-66
2023/01/10 06:10:34;;;;;;;3.55;1.27;;;7.20;94.60;;;;;;5033019;28;20026;-66
2023/01/10 06:12:59;;;;;;;6.43;1.80;;;7.20;94.60;;;;;;5032410;28;20021;-66
2023/01/10 06:15:25;;;;;;;6.00;1.83;;;7.20;94.50;;;;;;5021188;28;20036;-67
2023/01/10 06:17:51;;;;;;;8.20;1.92;;;7.20;94.50;;;;;;5030900;28;20029;-67
2023/01/10 06:20:16;;;;;;;7.53;2.35;;;7.20;94.50;;;;;;5033215;28;20024;-67
2023/01/10 06:22:42;;;;;;;6.18;2.35;;;7.20;94.40;;;;;;5032340;28;20446;-67
2023/01/10 06:25:09;;;;;;;5.97;1.90;;;7.20;94.40;;;;;;5029474;28;20037;-67
2023/01/10 06:27:37;;;;;;;3.45;1.73;;;7.20;94.40;;;;;;5031425;28;20447;-67
2023/01/10 06:30:03;;;;;;;8.52;2.03;;;7.20;94.40;;;;;;5029405;28;20010;-67
2023/01/10 06:32:29;;;;;;;5.65;1.95;;;7.20;94.40;;;;;;5031974;28;20044;-67
2023/01/10 06:34:54;;;;;;;8.43;2.45;;;7.10;94.30;;;;;;5029333;28;20107;-67
2023/01/10 06:37:20;;;;;;;6.35;1.63;;;7.10;94.40;;;;;;5030669;28;20030;-67
2023/01/10 06:39:45;;;;;;;5.70;1.65;;;7.10;94.40;;;;;;5032713;28;20037;-66
2023/01/10 06:42:11;;;;;;;8.45;1.40;;;7.20;94.40;;;;;;5027802;28;20032;-67
2023/01/10 06:44:37;;;;;;;10.82;2.65;;;7.10;94.40;;;;;;5034414;28;20554;-66
2023/01/10 06:47:03;;;;;;;4.07;1.83;;;7.10;94.40;;;;;;5020276;28;20024;-67
2023/01/10 06:49:28;;;;;;;6.20;1.90;;;7.10;94.40;;;;;;5034774;28;20673;-66
2023/01/10 06:51:54;;;;;;;5.57;2.42;;;7.10;94.40;;;;;;5027589;28;20033;-66
2023/01/10 06:54:20;;;;;;;5.18;1.60;;;7.10;94.40;;;;;;5032320;28;21474;-67
2023/01/10 06:56:48;;;;;;;5.00;1.77;;;7.20;94.40;;;;;;5033353;28;20021;-67
2023/01/10 06:59:14;;;;;;;12.75;2.35;;;7.20;94.40;;;;;;5031966;28;20045;-67
2023/01/10 07:01:40;;;;;;;7.35;1.73;;;7.10;94.30;;;;;;5038303;28;20438;-67
2023/01/10 07:04:05;;;;;;;10.13;2.38;;;7.10;94.30;;;;;;5032329;28;20052;-67
2023/01/10 07:06:36;;;;;;;9.88;1.63;;;7.10;94.30;;;;;;5039668;28;20021;-67
2023/01/10 07:09:01;;;;;;;5.63;1.60;;;7.10;94.30;;;;;;5028082;28;20682;-67
2023/01/10 07:11:27;;;;;;;6.65;1.95;;;7.10;94.30;;;;;;5026486;28;20025;-67
2023/01/10 07:13:53;;;;;;;8.20;2.25;;;7.10;94.30;;;;;;5032072;28;20029;-67
2023/01/10 07:16:18;;;;;;;11.57;3.17;;;7.10;94.30;;;;;;5047690;28;20029;-67
2023/01/10 07:18:44;;;;;;;4.95;1.73;;;7.10;94.20;;;;;;5037740;28;20033;-67
2023/01/10 07:21:10;;;;;;;6.95;1.83;;;7.20;94.30;;;;;;5050967;28;20083;-67
2023/01/10 07:23:36;;;;;;;4.22;2.10;;;7.20;94.20;;;;;;5046371;28;20068;-67
2023/01/10 07:26:09;;;;;;;8.63;1.83;;;7.20;94.20;;;;;;5045684;28;20037;-67
2023/01/10 07:28:35;;;;;;;12.63;1.75;;;7.20;94.30;;;;;;5013668;28;20095;-67
2023/01/10 07:31:02;;;;;;;7.68;2.15;;;7.20;94.20;;;;;;5023256;28;20483;-67
2023/01/10 07:33:28;;;;;;;4.72;1.40;;;7.20;94.20;;;;;;5035206;28;20407;-67
2023/01/10 07:35:54;;;;;;;5.95;1.45;;;7.20;94.20;;;;;;5031911;28;20022;-67
2023/01/10 07:38:20;;;;;;;11.18;1.98;;;7.20;94.20;;;;;;5043502;28;20028;-67
2023/01/10 07:40:45;;;;;;;6.10;1.30;;;7.20;94.20;;;;;;5037443;28;20369;-66
2023/01/10 07:43:11;;;;;;;4.72;1.80;;;7.30;94.30;;;;;;5032342;28;20029;-66
2023/01/10 07:45:36;;;;;;;9.13;1.88;;;7.30;94.20;;;;;;5032073;28;20065;-66
2023/01/10 07:48:03;;;;;;;3.40;1.50;;;7.20;94.10;;;;;;5032436;28;20496;-67
2023/01/10 07:50:33;;;;;;;10.60;1.98;;;7.20;94.10;;;;;;5032784;28;20457;-67
2023/01/10 07:52:59;;;;;;;6.75;1.95;;;7.20;94.20;;;;;;5031364;28;20018;-66
2023/01/10 07:55:26;;;;;;;10.60;2.08;;;7.20;94.20;;;;;;5032523;28;20029;-66
2023/01/10 07:57:52;;;;;;;4.65;1.90;;;7.20;94.10;;;;;;5031148;28;20033;-66
2023/01/10 08:00:18;;;;;;;6.50;1.80;;;7.20;94.10;;;;;;5028595;28;20025;-67
2023/01/10 08:02:44;;;;;;;10.18;2.10;;;7.20;94.10;;;;;;5026488;28;20025;-66
2023/01/10 08:05:10;;;;;;;12.00;1.98;;;7.20;94.10;;;;;;5025883;28;20125;-66
2023/01/10 08:07:35;;;;;;;3.65;1.42;;;7.20;94.10;;;;;;5029598;28;20039;-66
2023/01/10 08:10:02;;;;;;;7.70;1.88;;;7.20;94.10;;;;;;5030148;28;20025;-67
2023/01/10 08:12:27;;;;;;;6.85;1.60;;;7.20;94.00;;;;;;5028082;28;20026;-67
2023/01/10 08:14:53;;;;;;;5.50;2.15;;;7.20;94.00;;;;;;5025541;28;20075;-67
2023/01/10 08:17:18;;;;;;;10.15;2.63;;;7.20;94.00;;;;;;5023785;28;20026;-67
2023/01/10 08:19:44;;;;;;;8.57;1.88;;;7.20;94.00;;;;;;5029687;28;20026;-68
2023/01/10 08:22:10;;;;;;;10.30;2.33;;;7.20;94.00;;;;;;5031305;28;20045;-67
2023/01/10 08:24:36;;;;;;;6.57;2.03;;;7.20;93.90;;;;;;5029235;28;20057;-67
2023/01/10 08:27:01;;;;;;;6.43;1.70;;;7.20;93.90;;;;;;5029296;28;20079;-67
2023/01/10 08:29:27;;;;;;;9.02;1.92;;;7.20;93.90;;;;;;5030918;28;20033;-67
2023/01/10 08:31:53;;;;;;;8.95;1.95;;;7.30;93.80;;;;;;5025444;28;20021;-67
2023/01/10 08:34:18;;;;;;;8.60;2.33;;;7.20;93.60;;;;;;5034335;28;20075;-67
2023/01/10 08:36:45;;;;;;;7.28;1.67;;;7.20;93.70;;;;;;5028901;28;20021;-67
2023/01/10 08:39:11;;;;;;;7.03;1.52;;;7.20;93.70;;;;;;5038491;28;20064;-67
2023/01/10 08:41:38;;;;;;;8.00;1.65;;;7.20;93.70;;;;;;5043802;28;20458;-67
2023/01/10 08:44:04;;;;;;;8.98;1.92;;;7.20;93.70;;;;;;5037678;28;20093;-67
2023/01/10 08:46:30;;;;;;;4.50;1.65;;;7.20;93.70;;;;;;5028578;28;20028;-67
2023/01/10 08:48:55;;;;;;;7.78;1.50;;;7.20;93.70;;;;;;5025750;28;20029;-68
2023/01/10 08:51:21;;;;;;;12.45;2.33;;;7.20;93.70;;;;;;5037880;28;20022;-67
2023/01/10 08:53:47;;;;;;;4.70;1.63;;;7.20;93.60;;;;;;5034404;28;20105;-67
2023/01/10 08:56:13;;;;;;;8.05;2.13;;;7.30;93.90;;;;;;5032132;28;20135;-67
2023/01/10 08:58:38;;;;;;;10.65;2.08;;;7.30;93.60;;;;;;5028833;28;20025;-67
2023/01/10 09:01:05;;;;;;;8.25;2.22;;;7.40;93.60;;;;;;5032179;28;20021;-67
2023/01/10 09:03:31;;;;;;;9.32;2.05;;;7.40;93.60;;;;;;5033360;28;20061;-67
2023/01/10 09:06:00;;;;;;;7.45;2.05;;;7.40;93.50;;;;;;5034533;28;20056;-67
2023/01/10 09:08:27;;;;;;;5.85;1.98;;;7.50;93.50;;;;;;5027244;28;20029;-67
2023/01/10 09:10:52;;;;;;;6.60;2.00;;;7.50;93.40;;;;;;5042328;28;20026;-67
2023/01/10 09:13:18;;;;;;;5.22;1.33;;;7.50;93.40;;;;;;5038421;28;20025;-67
2023/01/10 09:15:43;;;;;;;13.18;1.77;;;7.60;93.40;;;;;;5035162;28;20104;-68
2023/01/10 09:18:11;;;;;;;8.15;1.80;;;7.60;93.40;;;;;;5038009;28;20072;-67
2023/01/10 09:20:39;;;;;;;7.68;1.30;;;7.70;93.40;;;;;;5030001;28;20084;-67
2023/01/10 09:23:10;;;;;;;5.95;1.60;;;7.70;93.40;;;;;;5029634;28;20025;-67
2023/01/10 09:25:37;;;;;;;9.32;1.83;;;7.70;93.30;;;;;;5028610;28;20044;-67
2023/01/10 09:28:04;;;;;;;5.80;1.75;;;7.70;93.30;;;;;;5026257;28;20116;-67
2023/01/10 09:30:31;;;;;;;7.53;1.70;;;7.80;93.30;;;;;;5030079;28;20113;-67
2023/01/10 09:32:57;;;;;;;9.05;1.65;;;7.70;93.20;;;;;;5023714;28;20025;-67
2023/01/10 09:35:24;;;;;;;9.50;1.92;;;7.70;93.10;;;;;;5037253;28;20022;-67
2023/01/10 09:37:54;;;;;;;5.25;1.88;;;7.70;93.10;;;;;;5024662;28;20034;-68
2023/01/10 09:40:25;;;;;;;15.75;2.75;;;7.60;93.10;;;;;;5036999;28;20494;-65
2023/01/10 09:42:59;;;;;;;8.88;2.08;;;7.60;93.10;;;;;;5023175;28;20034;-65
2023/01/10 09:45:47;;;;;;;9.70;2.00;;;7.60;93.00;;;;;;5053322;28;20422;-68
2023/01/10 09:48:30;;;;;;;9.05;1.70;;;7.60;93.00;;;;;;5029963;28;20079;-67
2023/01/10 09:51:22;;;;;;;9.55;2.17;;;7.60;93.00;;;;;;5027361;28;20103;-67
2023/01/10 09:53:50;;;;;;;9.63;1.88;;;7.60;92.80;;;;;;5023626;28;20441;-66
2023/01/10 09:56:17;;;;;;;8.82;2.03;;;7.60;92.90;;;;;;5032556;28;20496;-66
2023/01/10 09:58:44;;;;;;;6.50;1.70;;;7.60;92.90;;;;;;5036116;28;20057;-66
2023/01/10 10:01:21;;;;;;;12.88;1.95;;;7.60;92.80;;;;;;5034128;28;20384;-66
2023/01/10 10:04:14;;;;;;;8.45;2.67;;;7.50;92.70;;;;;;5033343;28;20094;-66
2023/01/10 10:06:39;;;;;;;6.70;2.00;;;7.50;92.80;;;;;;5024834;28;20026;-66
2023/01/10 10:09:05;;;;;;;8.40;1.92;;;7.50;92.80;;;;;;5036329;28;20437;-67
2023/01/10 10:11:49;;;;;;;6.65;2.03;;;7.50;92.60;;;;;;5037890;28;20550;-66
2023/01/10 10:14:51;;;;;;;12.05;2.83;;;7.60;92.70;;;;;;5041036;28;20025;-66
2023/01/10 10:17:16;;;;;;;8.75;1.83;;;7.50;92.50;;;;;;5017957;28;20605;-66
2023/01/10 10:20:09;;;;;;;6.60;2.40;;;7.50;92.50;;;;;;5041188;28;20104;-66
2023/01/10 10:22:38;;;;;;;14.40;2.67;;;7.50;92.60;;;;;;5024531;28;20025;-66
2023/01/10 10:25:40;;;;;;;9.30;2.63;;;7.50;92.50;;;;;;5035751;28;20036;-66
2023/01/10 10:28:35;;;;;;;5.47;1.80;;;7.50;92.40;;;;;;5020310;28;20095;-67
2023/01/10 10:31:18;;;;;;;9.80;2.15;;;7.50;92.40;;;;;;5035716;28;20374;-67
2023/01/10 10:33:52;;;;;;;7.82;1.60;;;7.40;92.40;;;;;;5026179;28;20029;-67
2023/01/10 10:36:39;;;;;;;10.73;2.35;;;7.40;92.30;;;;;;5037129;28;20112;-67
2023/01/10 10:39:08;;;;;;;16.20;2.78;;;7.40;92.20;;;;;;5035996;28;20037;-66
2023/01/10 10:41:41;;;;;;;14.30;2.20;;;7.40;92.10;;;;;;5029124;28;20037;-67
2023/01/10 10:44:39;;;;;;;11.98;2.13;;;7.30;92.10;;;;;;5028000;28;20037;-67
2023/01/10 10:47:16;;;;;;;7.93;2.13;;;7.40;92.20;;;;;;5027443;28;20037;-67
2023/01/10 10:49:51;;;;;;;10.60;2.40;;;7.40;92.10;;;;;;5037107;28;20551;-66
2023/01/10 10:52:34;;;;;;;13.48;2.38;;;7.40;92.20;;;;;;5026538;28;20028;-67
2023/01/10 10:55:01;;;;;;;3.33;1.20;;;7.40;92.00;;;;;;5034232;28;20105;-67
2023/01/10 10:57:28;;;;;;;7.75;1.85;;;7.40;92.00;;;;;;5025111;28;20013;-67
2023/01/10 10:59:55;;;;;;;6.50;1.70;;;7.50;92.10;;;;;;5039363;28;20094;-67
2023/01/10 11:02:25;;;;;;;5.88;1.52;;;7.50;92.10;;;;;;5030403;28;20029;-67
2023/01/10 11:04:54;;;;;;;6.43;2.20;;;7.60;92.20;;;;;;5028957;28;20033;-67
2023/01/10 11:07:21;;;;;;;7.25;1.90;;;7.60;92.20;;;;;;5030403;28;20392;-67
2023/01/10 11:12:31;;;;;;;10.70;1.92;;;7.60;91.80;;;;;;5042661;28;20052;-67
2023/01/10 11:14:58;;;;;;;8.80;1.63;;;7.60;91.80;;;;;;5028173;28;20026;-66
2023/01/10 11:17:27;;;;;;;14.40;1.98;;;7.70;91.90;;;;;;5023567;28;20030;-66
2023/01/10 11:19:58;;;;;;;11.27;1.90;;;7.70;91.80;;;;;;5034749;28;20060;-66
2023/01/10 11:22:24;;;;;;;7.90;1.98;;;7.70;91.60;;;;;;5027594;28;20033;-67
2023/01/10 11:24:55;;;;;;;11.80;2.20;;;7.70;91.60;;;;;;5032092;28;20030;-67
2023/01/10 11:27:25;;;;;;;9.00;2.30;;;7.60;91.50;;;;;;5030440;28;20029;-67
2023/01/10 11:30:05;;;;;;;8.82;1.90;;;7.60;91.50;;;;;;5039759;28;20025;-67
2023/01/10 11:32:38;;;;;;;9.75;1.67;;;7.60;91.50;;;;;;5028139;28;20018;-67
2023/01/10 11:35:16;;;;;;;11.23;2.30;;;7.60;91.50;;;;;;5048870;28;20511;-67
2023/01/10 11:37:41;;;;;;;10.55;2.10;;;7.70;91.60;;;;;;5052690;28;20392;-67
2023/01/10 11:40:14;;;;;;;6.82;2.03;;;7.70;91.60;;;;;;5040287;28;20040;-68
2023/01/10 11:42:39;;;;;;;;;;;7.70;91.90;;;;;;5027366;28;20029;-67
2023/01/10 11:45:20;;;;;;;14.57;2.42;;;7.80;91.50;;;;;;5032489;28;19916;-68
2023/01/10 11:47:53;;;;;;;15.63;2.00;;;7.80;91.60;;;;;;5027587;28;20488;-66
2023/01/10 11:50:22;;;;;;;5.38;1.95;;;7.80;91.40;;;;;;5031300;28;20057;-66
2023/01/10 11:52:49;;;;;;;8.80;2.03;;;7.80;91.40;;;;;;5033423;28;20116;-67
2023/01/10 11:55:29;;;;;;;8.68;2.55;;;7.80;91.40;;;;;;5026284;28;20153;-68
2023/01/10 11:58:12;;;;;;;4.57;1.67;;;7.90;91.40;;;;;;5027913;28;20026;-68
2023/01/10 12:00:38;;;;;;;8.75;1.95;;;7.90;91.30;;;;;;5031441;28;20022;-68
2023/01/10 12:03:19;;;;;;;8.82;1.80;;;7.90;91.40;;;;;;5029557;28;20056;-68
2023/01/10 12:05:50;;;;;;;6.97;2.50;;;7.90;91.40;;;;;;5024985;28;20087;-68
2023/01/10 12:08:25;;;;;;;5.70;1.65;;;7.90;91.40;;;;;;5026689;28;20025;-68
2023/01/10 12:11:02;;;;;;;5.88;1.70;;;7.90;91.30;;;;;;5020426;28;20037;-67
2023/01/10 12:13:30;;;;;;;14.45;2.05;;;7.90;91.40;;;;;;5023277;28;20025;-67
2023/01/10 12:16:16;;;;;;;9.25;1.73;;;7.90;91.30;;;;;;5030008;28;20037;-68
2023/01/10 12:18:41;;;;;;;12.52;2.83;;;8.00;91.40;;;;;;5023955;28;20071;-67
2023/01/10 12:21:11;;;;;;;8.93;2.33;;;8.00;91.20;;;;;;5025888;28;20029;-67
2023/01/10 12:23:40;;;;;;;4.82;1.40;;;8.00;91.20;;;;;;5029701;28;20476;-66
2023/01/10 12:26:08;;;;;;;7.30;1.60;;;8.00;91.40;;;;;;5022854;28;20107;-68
2023/01/10 12:28:36;;;;;;;6.25;1.77;;;8.10;91.70;;;;;;5027789;28;20083;-68
2023/01/10 12:31:04;;;;;;;9.45;1.98;;;8.10;91.40;;;;;;5024078;28;20017;-67
2023/01/10 12:33:34;;;;;;;6.88;1.70;;;8.10;91.40;;;;;;5032867;28;20025;-68
2023/01/10 12:36:11;;;;;;;8.70;1.67;;;8.10;91.30;;;;;;5028131;28;20026;-67
2023/01/10 12:39:05;;;;;;;9.35;3.25;;;8.10;91.40;;;;;;5034579;28;20124;-69
2023/01/10 12:44:44;;;;;;;6.43;2.08;;;8.10;91.30;;;;;;5022655;28;20401;-67
2023/01/10 12:47:48;;;;;;;6.40;2.00;;;8.10;91.40;;;;;;5028383;28;20033;-67
2023/01/10 12:50:31;;;;;;;8.25;1.55;;;8.10;91.30;;;;;;5024440;28;20155;-66
2023/01/10 12:53:05;;;;;;;8.55;1.83;;;8.10;91.30;;;;;;5033305;28;20388;-68
2023/01/10 12:55:39;;;;;;;7.45;2.63;;;8.00;91.20;;;;;;5025365;28;20024;-68
2023/01/10 12:58:10;;;;;;;9.85;2.20;;;8.00;91.00;;;;;;5026500;28;20025;-65
2023/01/10 13:00:40;;;;;;;7.13;2.22;;;8.00;91.00;;;;;;5027281;28;20483;-68
2023/01/10 13:03:18;;;;;;;18.38;2.20;;;8.00;91.10;;;;;;5029073;28;20034;-67
2023/01/10 13:05:47;;;;;;;8.32;1.83;;;8.00;91.00;;;;;;5028494;28;20704;-68
2023/01/10 13:08:16;;;;;;;10.50;2.70;;;8.00;91.00;;;;;;5029956;28;20064;-69
2023/01/10 13:10:46;;;;;;;5.80;1.55;;;8.00;90.90;;;;;;5028251;28;20499;-68
2023/01/10 13:13:28;;;;;;;10.35;2.30;;;8.10;91.10;;;;;;5023380;28;20037;-67
2023/01/10 13:16:08;;;;;;;14.70;2.25;;;8.10;90.90;;;;;;5021902;28;20060;-67
2023/01/10 13:18:33;;;;;;;12.65;2.63;;;8.10;91.00;;;;;;5027302;28;20037;-68
2023/01/10 13:21:12;;;;;;;6.68;1.85;;;8.10;90.80;;;;;;5018042;28;20030;-68
2023/01/10 13:23:52;;;;;;;6.80;1.75;;;8.10;90.70;;;;;;5021340;28;20442;-67
2023/01/10 13:26:18;;;;;;;7.03;1.60;;;8.10;90.90;;;;;;5035535;28;20029;-69